createdAt,value
2017-10-11T00:02:17.709Z,16.50
2017-10-11T00:04:45.323Z,16.50
2017-10-11T00:07:12.967Z,16.50
2017-10-11T00:09:40.718Z,16.50
2017-10-11T00:12:08.341Z,16.50
2017-10-11T00:14:36.747Z,16.50
2017-10-11T00:17:04.383Z,16.40
2017-10-11T00:19:32.063Z,16.50
2017-10-11T00:21:59.691Z,16.50
2017-10-11T00:24:28.120Z,16.50
2017-10-11T00:26:55.740Z,16.40
2017-10-11T00:29:24.128Z,16.50
2017-10-11T00:31:52.540Z,16.50
2017-10-11T00:34:20.158Z,16.40
2017-10-11T00:36:48.564Z,16.40
2017-10-11T00:39:16.179Z,16.40
2017-10-11T00:41:45.347Z,16.40
2017-10-11T00:44:13.017Z,16.40
2017-10-11T00:46:40.647Z,16.40
2017-10-11T00:49:08.300Z,16.40
2017-10-11T00:51:35.927Z,16.40
2017-10-11T00:54:03.587Z,16.40
2017-10-11T00:56:31.228Z,16.40
2017-10-11T00:58:58.891Z,16.50
2017-10-11T01:01:26.514Z,16.40
2017-10-11T01:03:54.189Z,16.40
2017-10-11T01:06:21.827Z,16.40
2017-10-11T01:08:50.451Z,16.40
2017-10-11T01:11:18.075Z,16.40
2017-10-11T01:13:45.878Z,16.40
2017-10-11T01:16:13.518Z,16.40
2017-10-11T01:18:41.151Z,16.40
2017-10-11T01:21:09.568Z,16.40
2017-10-11T01:23:37.191Z,16.40
2017-10-11T01:26:05.624Z,16.40
2017-10-11T01:28:33.257Z,16.40
2017-10-11T01:31:00.916Z,16.50
2017-10-11T01:33:28.611Z,16.40
2017-10-11T01:35:56.295Z,16.40
2017-10-11T01:38:23.947Z,16.40
2017-10-11T01:40:51.570Z,16.40
2017-10-11T01:43:19.229Z,16.40
2017-10-11T01:45:46.864Z,16.40
2017-10-11T01:48:15.283Z,16.40
2017-10-11T01:50:42.905Z,16.40
2017-10-11T01:53:11.327Z,16.40
2017-10-11T01:55:38.952Z,16.40
2017-10-11T01:58:07.489Z,16.40
2017-10-11T02:00:35.130Z,16.30
2017-10-11T02:03:02.787Z,16.40
2017-10-11T02:05:30.492Z,16.40
2017-10-11T02:07:58.954Z,16.40
2017-10-11T02:10:26.581Z,16.30
2017-10-11T02:12:54.229Z,16.30
2017-10-11T02:15:22.617Z,16.30
2017-10-11T02:17:51.062Z,16.30
2017-10-11T02:20:18.713Z,16.30
2017-10-11T02:22:46.466Z,16.30
2017-10-11T02:25:14.107Z,16.30
2017-10-11T02:27:41.751Z,16.30
2017-10-11T02:30:09.382Z,16.30
2017-10-11T02:32:37.046Z,16.30
2017-10-11T02:35:05.447Z,16.30
2017-10-11T02:37:33.171Z,16.30
2017-10-11T02:40:00.940Z,16.30
2017-10-11T02:42:28.583Z,16.30
2017-10-11T02:44:56.251Z,16.30
2017-10-11T02:47:23.891Z,16.30
2017-10-11T02:49:51.553Z,16.30
2017-10-11T02:52:19.184Z,16.30
2017-10-11T02:54:47.612Z,16.30
2017-10-11T02:57:15.259Z,16.30
2017-10-11T02:59:42.883Z,16.30
2017-10-11T03:02:11.423Z,16.30
2017-10-11T03:04:39.056Z,16.20
2017-10-11T03:07:06.711Z,16.30
2017-10-11T03:09:34.420Z,16.30
2017-10-11T03:12:02.185Z,16.30
2017-10-11T03:14:29.828Z,16.30
2017-10-11T03:16:57.480Z,16.30
2017-10-11T03:19:25.126Z,16.30
2017-10-11T03:21:52.751Z,16.30
2017-10-11T03:24:21.322Z,16.30
2017-10-11T03:26:48.934Z,16.20
2017-10-11T03:29:16.577Z,16.30
2017-10-11T03:31:44.982Z,16.30
2017-10-11T03:34:12.605Z,16.20
2017-10-11T03:36:40.264Z,16.30
2017-10-11T03:39:07.891Z,16.30
2017-10-11T03:41:35.556Z,16.30
2017-10-11T03:44:03.199Z,16.30
2017-10-11T03:46:30.819Z,16.30
2017-10-11T03:48:59.239Z,16.30
2017-10-11T03:51:27.022Z,16.30
2017-10-11T03:53:54.683Z,16.30
2017-10-11T03:56:22.312Z,16.30
2017-10-11T03:58:49.940Z,16.30
2017-10-11T04:01:17.582Z,16.30
2017-10-11T04:03:45.207Z,16.30
2017-10-11T04:06:12.894Z,16.30
2017-10-11T04:08:40.531Z,16.30
2017-10-11T04:11:08.186Z,16.30
2017-10-11T04:13:35.814Z,16.30
2017-10-11T04:16:03.445Z,16.30
2017-10-11T04:18:31.096Z,16.30
2017-10-11T04:20:58.719Z,16.40
2017-10-11T04:23:27.148Z,16.30
2017-10-11T04:25:54.771Z,16.30
2017-10-11T04:28:22.411Z,16.30
2017-10-11T04:30:50.848Z,16.30
2017-10-11T04:33:18.498Z,16.30
2017-10-11T04:35:46.159Z,16.30
2017-10-11T04:38:13.790Z,16.30
2017-10-11T04:40:42.219Z,16.30
2017-10-11T04:43:09.855Z,16.30
2017-10-11T04:45:37.503Z,16.30
2017-10-11T04:48:05.132Z,16.40
2017-10-11T04:50:32.859Z,16.40
2017-10-11T04:53:00.471Z,16.30
2017-10-11T04:55:28.862Z,16.40
2017-10-11T04:57:57.279Z,16.30
2017-10-11T05:00:24.887Z,16.30
2017-10-11T05:02:53.302Z,16.40
2017-10-11T05:05:20.927Z,16.30
2017-10-11T05:07:48.563Z,16.40
2017-10-11T05:10:16.190Z,16.40
2017-10-11T05:12:44.703Z,16.30
2017-10-11T05:15:12.331Z,16.30
2017-10-11T05:17:39.983Z,16.30
2017-10-11T05:20:07.593Z,16.30
2017-10-11T05:22:35.247Z,16.30
2017-10-11T05:25:02.932Z,16.30
2017-10-11T05:27:30.668Z,16.30
2017-10-11T05:29:58.317Z,16.30
2017-10-11T05:32:25.940Z,16.30
2017-10-11T05:34:54.473Z,16.30
2017-10-11T05:37:22.114Z,16.20
2017-10-11T05:39:49.731Z,16.30
2017-10-11T05:42:17.460Z,16.30
2017-10-11T05:44:45.101Z,16.30
2017-10-11T05:47:12.752Z,16.30
2017-10-11T05:49:40.367Z,16.30
2017-10-11T05:52:08.313Z,16.20
2017-10-11T05:54:35.958Z,16.30
2017-10-11T05:57:03.859Z,16.20
2017-10-11T05:59:31.628Z,16.30
2017-10-11T06:01:59.271Z,16.30
2017-10-11T06:04:26.936Z,16.20
2017-10-11T06:06:54.564Z,16.30
2017-10-11T06:09:22.209Z,16.30
2017-10-11T06:11:50.615Z,16.30
2017-10-11T06:14:18.293Z,16.20
2017-10-11T06:16:46.073Z,16.20
2017-10-11T06:19:13.729Z,16.30
2017-10-11T06:21:41.401Z,16.30
2017-10-11T06:24:09.154Z,16.20
2017-10-11T06:26:36.931Z,16.30
2017-10-11T06:29:04.583Z,16.20
2017-10-11T06:31:32.245Z,16.20
2017-10-11T06:33:59.924Z,16.20
2017-10-11T06:36:27.580Z,16.30
2017-10-11T06:38:55.208Z,16.30
2017-10-11T06:41:22.832Z,16.30
2017-10-11T06:43:51.296Z,16.30
2017-10-11T06:46:18.919Z,16.30
2017-10-11T06:48:46.614Z,16.30
2017-10-11T06:51:14.373Z,16.30
2017-10-11T06:53:42.036Z,16.30
2017-10-11T06:56:09.699Z,16.30
2017-10-11T06:58:37.320Z,16.30
2017-10-11T07:01:05.035Z,16.30
2017-10-11T07:03:32.654Z,16.30
2017-10-11T07:06:00.330Z,16.30
2017-10-11T07:08:28.923Z,16.40
2017-10-11T07:10:56.576Z,16.40
2017-10-11T07:13:24.198Z,16.40
2017-10-11T07:15:52.621Z,16.30
2017-10-11T07:18:20.248Z,16.30
2017-10-11T07:20:47.921Z,16.30
2017-10-11T07:23:15.624Z,16.30
2017-10-11T07:25:43.297Z,16.30
2017-10-11T07:28:10.963Z,16.30
2017-10-11T07:30:38.580Z,16.40
2017-10-11T07:33:06.234Z,16.40
2017-10-11T07:35:33.935Z,16.40
2017-10-11T07:38:01.599Z,16.40
2017-10-11T07:40:29.242Z,16.40
2017-10-11T07:42:56.867Z,16.40
2017-10-11T07:45:24.518Z,16.40
2017-10-11T07:47:52.915Z,16.40
2017-10-11T07:50:20.629Z,16.40
2017-10-11T07:52:48.323Z,16.40
2017-10-11T07:55:16.750Z,16.40
2017-10-11T07:57:44.430Z,16.40
2017-10-11T08:00:12.059Z,16.50
2017-10-11T08:02:39.719Z,16.40
2017-10-11T08:05:07.359Z,16.50
2017-10-11T08:07:35.767Z,16.50
2017-10-11T08:10:03.388Z,16.40
2017-10-11T08:12:31.840Z,16.50
2017-10-11T08:14:59.615Z,16.40
2017-10-11T08:17:27.282Z,16.50
2017-10-11T08:19:55.019Z,16.50
2017-10-11T08:22:22.637Z,16.50
2017-10-11T08:24:50.280Z,16.60
2017-10-11T08:27:17.903Z,16.60
2017-10-11T08:29:45.542Z,16.60
2017-10-11T08:32:13.252Z,16.60
2017-10-11T08:34:42.410Z,16.60
2017-10-11T08:37:10.096Z,16.60
2017-10-11T08:39:37.864Z,16.70
2017-10-11T08:42:05.491Z,16.70
2017-10-11T08:44:33.130Z,16.70
2017-10-11T08:47:01.659Z,16.70
2017-10-11T08:49:29.298Z,16.70
2017-10-11T08:51:57.120Z,16.70
2017-10-11T08:54:25.519Z,16.70
2017-10-11T08:56:53.943Z,16.70
2017-10-11T08:59:21.611Z,16.70
2017-10-11T09:01:49.271Z,16.70
2017-10-11T09:04:16.931Z,16.70
2017-10-11T09:06:44.559Z,16.70
2017-10-11T09:09:12.266Z,16.80
2017-10-11T09:11:39.894Z,16.80
2017-10-11T09:14:07.540Z,16.80
2017-10-11T09:16:35.971Z,16.80
2017-10-11T09:19:03.617Z,16.80
2017-10-11T09:21:31.311Z,16.80
2017-10-11T09:23:58.964Z,16.80
2017-10-11T09:26:26.591Z,16.80
2017-10-11T09:28:54.215Z,16.80
2017-10-11T09:31:22.633Z,16.80
2017-10-11T09:33:50.252Z,16.80
2017-10-11T09:36:17.991Z,16.90
2017-10-11T09:38:45.608Z,16.80
2017-10-11T09:41:13.235Z,16.80
2017-10-11T09:43:40.974Z,16.80
2017-10-11T09:46:08.659Z,16.80
2017-10-11T09:48:36.319Z,16.80
2017-10-11T09:51:04.109Z,16.80
2017-10-11T09:53:32.535Z,16.90
2017-10-11T09:56:00.212Z,16.90
2017-10-11T09:58:27.834Z,16.90
2017-10-11T10:00:55.488Z,17.00
2017-10-11T10:03:23.191Z,17.00
2017-10-11T10:05:50.959Z,17.00
2017-10-11T10:08:18.588Z,17.10
2017-10-11T10:10:46.427Z,17.10
2017-10-11T10:13:14.863Z,17.10
2017-10-11T10:15:42.566Z,17.00
2017-10-11T10:18:11.003Z,17.10
2017-10-11T10:20:38.716Z,17.10
2017-10-11T10:23:07.369Z,17.20
2017-10-11T10:25:35.120Z,17.10
2017-10-11T10:28:02.785Z,17.20
2017-10-11T10:30:30.416Z,17.20
2017-10-11T10:32:58.048Z,17.20
2017-10-11T10:35:26.527Z,17.30
2017-10-11T10:37:54.911Z,17.20
2017-10-11T10:40:23.387Z,17.20
2017-10-11T10:42:51.925Z,17.20
2017-10-11T10:45:19.604Z,17.20
2017-10-11T10:47:47.257Z,17.30
2017-10-11T10:50:14.872Z,17.30
2017-10-11T10:52:43.444Z,17.30
2017-10-11T10:55:12.551Z,17.30
2017-10-11T10:57:40.179Z,17.30
2017-10-11T11:00:07.816Z,17.30
2017-10-11T11:02:35.481Z,17.30
2017-10-11T11:05:03.151Z,17.30
2017-10-11T11:07:30.880Z,17.30
2017-10-11T11:09:58.573Z,17.30
2017-10-11T11:12:26.252Z,17.20
2017-10-11T11:14:53.889Z,17.30
2017-10-11T11:17:21.514Z,17.20
2017-10-11T11:19:49.949Z,17.30
2017-10-11T11:22:17.586Z,17.20
2017-10-11T11:24:45.266Z,17.30
2017-10-11T11:27:12.938Z,17.30
2017-10-11T11:29:40.584Z,17.30
2017-10-11T11:32:08.229Z,17.30
2017-10-11T11:34:35.897Z,17.30
2017-10-11T11:37:03.511Z,17.30
2017-10-11T11:39:31.182Z,17.30
2017-10-11T11:41:59.583Z,17.20
2017-10-11T11:44:27.191Z,17.20
2017-10-11T11:46:54.840Z,17.20
2017-10-11T11:49:22.484Z,17.20
2017-10-11T11:51:50.127Z,17.20
2017-10-11T11:54:17.744Z,17.20
2017-10-11T11:56:45.400Z,17.20
2017-10-11T11:59:13.024Z,17.20
2017-10-11T12:01:40.693Z,17.20
2017-10-11T12:04:08.423Z,17.30
2017-10-11T12:06:36.803Z,17.30
2017-10-11T12:09:05.214Z,17.20
2017-10-11T12:11:32.834Z,17.20
2017-10-11T12:14:01.248Z,17.30
2017-10-11T12:16:28.876Z,17.20
2017-10-11T12:18:57.317Z,17.30
2017-10-11T12:21:25.079Z,17.20
2017-10-11T12:23:52.720Z,17.30
2017-10-11T12:26:20.365Z,17.30
2017-10-11T12:28:48.001Z,17.30
2017-10-11T12:31:16.461Z,17.30
2017-10-11T12:33:44.076Z,17.20
2017-10-11T12:36:11.730Z,17.30
2017-10-11T12:38:40.174Z,17.30
2017-10-11T12:41:07.832Z,17.20
2017-10-11T12:43:36.232Z,17.30
2017-10-11T12:46:04.671Z,17.30
2017-10-11T12:48:32.320Z,17.20
2017-10-11T12:51:00.009Z,17.30
2017-10-11T12:53:27.657Z,17.40
2017-10-11T12:55:55.332Z,17.30
2017-10-11T12:58:22.983Z,17.40
2017-10-11T13:00:50.599Z,17.40
2017-10-11T13:03:19.013Z,17.40
2017-10-11T13:05:46.628Z,17.30
2017-10-11T13:08:15.023Z,17.40
2017-10-11T13:10:43.463Z,17.40
2017-10-11T13:13:11.095Z,17.40
2017-10-11T13:15:38.749Z,17.40
2017-10-11T13:18:06.367Z,17.50
2017-10-11T13:20:34.025Z,17.50
2017-10-11T13:23:01.712Z,17.50
2017-10-11T13:25:30.136Z,17.50
2017-10-11T13:27:57.796Z,17.50
2017-10-11T13:30:25.401Z,17.50
2017-10-11T13:32:53.820Z,17.50
2017-10-11T13:35:21.431Z,17.50
2017-10-11T13:37:49.069Z,17.60
2017-10-11T13:40:16.707Z,17.60
2017-10-11T13:42:44.375Z,17.60
2017-10-11T13:45:12.000Z,17.60
2017-10-11T13:47:40.378Z,17.60
2017-10-11T13:50:08.790Z,17.60
2017-10-11T13:52:36.564Z,17.60
2017-10-11T13:55:04.283Z,17.60
2017-10-11T13:57:32.716Z,17.70
2017-10-11T14:00:00.396Z,17.60
2017-10-11T14:02:28.026Z,17.70
2017-10-11T14:04:55.690Z,17.70
2017-10-11T14:07:23.369Z,17.70
2017-10-11T14:09:51.039Z,17.70
2017-10-11T14:12:18.719Z,17.70
2017-10-11T14:14:46.333Z,17.70
2017-10-11T14:17:13.998Z,17.70
2017-10-11T14:19:41.615Z,17.70
2017-10-11T14:22:10.036Z,17.80
2017-10-11T14:24:37.664Z,17.80
2017-10-11T14:27:06.112Z,17.80
2017-10-11T14:29:33.764Z,17.80
2017-10-11T14:32:01.572Z,17.80
2017-10-11T14:34:29.992Z,17.90
2017-10-11T14:36:57.627Z,17.80
2017-10-11T14:39:26.042Z,17.80
2017-10-11T14:41:53.676Z,17.80
2017-10-11T14:44:21.299Z,17.80
2017-10-11T14:46:48.949Z,17.80
2017-10-11T14:49:16.593Z,17.70
2017-10-11T14:51:44.233Z,17.70
2017-10-11T14:54:11.891Z,17.70
2017-10-11T14:56:39.534Z,17.70
2017-10-11T14:59:07.919Z,17.70
2017-10-11T15:01:35.659Z,17.70
2017-10-11T15:04:03.303Z,17.70
2017-10-11T15:06:30.944Z,17.60
2017-10-11T15:08:58.583Z,17.60
2017-10-11T15:11:26.192Z,17.60
2017-10-11T15:13:53.834Z,17.60
2017-10-11T15:16:21.459Z,17.60
2017-10-11T15:18:50.265Z,17.60
2017-10-11T15:21:18.774Z,17.60
2017-10-11T15:23:46.547Z,17.60
2017-10-11T15:26:14.209Z,17.60
2017-10-11T15:28:41.876Z,17.60
2017-10-11T15:31:09.637Z,17.60
2017-10-11T15:33:37.256Z,17.60
2017-10-11T15:36:04.908Z,17.50
2017-10-11T15:38:32.646Z,17.50
2017-10-11T15:41:01.200Z,17.50
2017-10-11T15:43:28.816Z,17.50
2017-10-11T15:45:56.636Z,17.50
2017-10-11T15:48:24.453Z,17.50
2017-10-11T15:50:52.242Z,17.50
2017-10-11T15:53:20.078Z,17.50
2017-10-11T15:55:47.864Z,17.50
2017-10-11T15:58:15.631Z,17.50
2017-10-11T16:00:43.517Z,17.50
2017-10-11T16:03:11.353Z,17.50
2017-10-11T16:05:39.240Z,17.50
2017-10-11T16:08:07.010Z,17.50
2017-10-11T16:10:34.767Z,17.50
2017-10-11T16:13:02.679Z,17.50
2017-10-11T16:15:30.491Z,17.50
2017-10-11T16:17:58.314Z,17.50
2017-10-11T16:20:26.116Z,17.50
2017-10-11T16:22:53.939Z,17.40
2017-10-11T16:25:21.713Z,17.40
2017-10-11T16:27:49.663Z,17.40
2017-10-11T16:30:17.530Z,17.50
2017-10-11T16:32:46.113Z,17.50
2017-10-11T16:35:14.293Z,17.40
2017-10-11T16:37:42.155Z,17.40
2017-10-11T16:40:10.025Z,17.40
2017-10-11T16:42:37.893Z,17.40
2017-10-11T16:45:05.752Z,17.40
2017-10-11T16:47:33.623Z,17.30
2017-10-11T16:50:01.460Z,17.30
2017-10-11T16:52:29.355Z,17.30
2017-10-11T16:54:57.221Z,17.30
2017-10-11T16:57:25.092Z,17.30
2017-10-11T16:59:52.879Z,17.30
2017-10-11T17:02:21.499Z,17.30
2017-10-11T17:04:49.263Z,17.20
2017-10-11T17:07:17.068Z,17.30
2017-10-11T17:09:44.851Z,17.30
2017-10-11T17:12:12.660Z,17.20
2017-10-11T17:14:40.438Z,17.20
2017-10-11T17:17:08.342Z,17.20
2017-10-11T17:19:36.303Z,17.20
2017-10-11T17:22:04.171Z,17.10
2017-10-11T17:24:31.997Z,17.10
2017-10-11T17:26:59.796Z,17.10
2017-10-11T17:29:28.359Z,17.10
2017-10-11T17:31:56.164Z,17.10
2017-10-11T17:34:24.020Z,17.10
2017-10-11T17:36:51.829Z,17.00
2017-10-11T17:39:19.656Z,17.10
2017-10-11T17:41:47.418Z,17.00
2017-10-11T17:44:15.253Z,17.00
2017-10-11T17:46:43.071Z,17.00
2017-10-11T17:49:11.626Z,17.00
2017-10-11T17:51:39.523Z,16.90
2017-10-11T17:54:08.092Z,17.00
2017-10-11T17:56:35.912Z,16.90
2017-10-11T17:59:03.539Z,17.00
2017-10-11T18:01:31.973Z,17.00
2017-10-11T18:03:59.592Z,16.90
2017-10-11T18:06:27.979Z,16.90
2017-10-11T18:08:55.624Z,16.90
2017-10-11T18:11:24.003Z,16.90
2017-10-11T18:13:52.441Z,16.90
2017-10-11T18:16:20.073Z,16.90
2017-10-11T18:18:47.725Z,16.90
2017-10-11T18:21:15.349Z,16.90
2017-10-11T18:23:42.999Z,16.90
2017-10-11T18:26:10.809Z,16.90
2017-10-11T18:28:38.458Z,16.90
2017-10-11T18:31:06.907Z,16.90
2017-10-11T18:33:34.591Z,16.80
2017-10-11T18:36:02.247Z,16.90
2017-10-11T18:38:29.877Z,16.90
2017-10-11T18:40:57.539Z,16.90
2017-10-11T18:43:25.164Z,16.90
2017-10-11T18:45:53.605Z,16.90
2017-10-11T18:48:21.243Z,16.90
2017-10-11T18:50:48.860Z,16.90
2017-10-11T18:53:17.269Z,16.90
2017-10-11T18:55:44.889Z,16.90
2017-10-11T18:58:13.345Z,16.80
2017-10-11T19:00:40.969Z,16.80
2017-10-11T19:03:08.600Z,16.80
2017-10-11T19:05:37.003Z,16.80
2017-10-11T19:08:04.619Z,16.80
2017-10-11T19:10:32.283Z,16.80
2017-10-11T19:12:59.909Z,16.80
2017-10-11T19:15:27.560Z,16.80
2017-10-11T19:17:55.175Z,16.80
2017-10-11T19:20:23.582Z,16.80
2017-10-11T19:22:51.197Z,16.80
2017-10-11T19:25:18.834Z,16.80
2017-10-11T19:27:46.447Z,16.80
2017-10-11T19:30:14.881Z,16.80
2017-10-11T19:32:42.769Z,16.70
2017-10-11T19:35:10.498Z,16.80
2017-10-11T19:37:38.202Z,16.80
2017-10-11T19:40:05.908Z,16.70
2017-10-11T19:42:33.552Z,16.70
2017-10-11T19:45:01.947Z,16.70
2017-10-11T19:47:29.645Z,16.70
2017-10-11T19:49:57.261Z,16.70
2017-10-11T19:52:25.689Z,16.80
2017-10-11T19:54:53.299Z,16.70
2017-10-11T19:57:21.717Z,16.70
2017-10-11T19:59:49.378Z,16.70
2017-10-11T20:02:17.050Z,16.70
2017-10-11T20:04:44.673Z,16.70
2017-10-11T20:07:13.080Z,16.70
2017-10-11T20:09:40.695Z,16.70
2017-10-11T20:12:09.138Z,16.70
2017-10-11T20:14:36.750Z,16.60
2017-10-11T20:17:05.122Z,16.70
2017-10-11T20:19:33.544Z,16.70
2017-10-11T20:22:01.380Z,16.60
2017-10-11T20:24:29.064Z,16.70
2017-10-11T20:26:56.902Z,16.70
2017-10-11T20:29:25.532Z,16.70
2017-10-11T20:31:53.358Z,16.60
2017-10-11T20:34:21.945Z,16.70
2017-10-11T20:36:50.506Z,16.70
2017-10-11T20:39:18.332Z,16.60
2017-10-11T20:41:46.200Z,16.70
2017-10-11T20:44:14.029Z,16.70
2017-10-11T20:46:42.621Z,16.60
2017-10-11T20:49:10.641Z,16.60
2017-10-11T20:51:38.517Z,16.60
2017-10-11T20:54:06.491Z,16.70
2017-10-11T20:56:34.310Z,16.70
2017-10-11T20:59:02.098Z,16.60
2017-10-11T21:01:29.931Z,16.60
2017-10-11T21:03:57.712Z,16.60
2017-10-11T21:06:25.508Z,16.60
2017-10-11T21:08:53.305Z,16.60
2017-10-11T21:11:21.899Z,16.60
2017-10-11T21:13:50.446Z,16.60
2017-10-11T21:16:18.317Z,16.60
2017-10-11T21:18:46.120Z,16.60
2017-10-11T21:21:13.957Z,16.60
2017-10-11T21:23:41.766Z,16.60
2017-10-11T21:26:09.933Z,16.60
2017-10-11T21:28:37.763Z,16.60
2017-10-11T21:31:05.550Z,16.60
2017-10-11T21:33:34.281Z,16.60
2017-10-11T21:36:02.122Z,16.50
2017-10-11T21:38:30.909Z,16.50
2017-10-11T21:40:58.728Z,16.50
2017-10-11T21:43:26.569Z,16.50
2017-10-11T21:45:54.492Z,16.50
2017-10-11T21:48:22.327Z,16.50
2017-10-11T21:50:50.215Z,16.50
2017-10-11T21:53:18.802Z,16.50
2017-10-11T21:55:47.190Z,16.50
2017-10-11T21:58:16.607Z,16.50
2017-10-11T22:00:47.246Z,16.50
2017-10-11T22:03:17.892Z,16.50
2017-10-11T22:05:46.766Z,16.50
2017-10-11T22:08:14.802Z,16.50
2017-10-11T22:10:43.375Z,16.50
2017-10-11T22:13:11.207Z,16.40
2017-10-11T22:15:38.957Z,16.50
2017-10-11T22:18:06.844Z,16.50
2017-10-11T22:20:34.612Z,16.50
2017-10-11T22:23:02.477Z,16.50
2017-10-11T22:25:30.290Z,16.50
2017-10-11T22:27:58.885Z,16.50
2017-10-11T22:30:26.799Z,16.50
2017-10-11T22:32:54.652Z,16.50
2017-10-11T22:35:22.617Z,16.50
2017-10-11T22:37:50.411Z,16.40
2017-10-11T22:40:18.240Z,16.40
2017-10-11T22:42:46.057Z,16.40
2017-10-11T22:45:13.826Z,16.40
2017-10-11T22:47:41.706Z,16.40
2017-10-11T22:50:10.288Z,16.40
2017-10-11T22:52:38.812Z,16.40
2017-10-11T22:55:06.442Z,16.40
2017-10-11T22:57:34.999Z,16.40
2017-10-11T23:00:02.793Z,16.40
2017-10-11T23:02:31.327Z,16.40
2017-10-11T23:04:58.991Z,16.40
2017-10-11T23:07:26.615Z,16.50
2017-10-11T23:09:54.317Z,16.40
2017-10-11T23:12:22.039Z,16.40
2017-10-11T23:14:49.744Z,16.40
2017-10-11T23:17:18.126Z,16.40
2017-10-11T23:19:45.809Z,16.40
2017-10-11T23:22:13.494Z,16.40
2017-10-11T23:24:41.925Z,16.40
2017-10-11T23:27:09.563Z,16.40
2017-10-11T23:29:37.183Z,16.40
2017-10-11T23:32:04.831Z,16.40
2017-10-11T23:34:32.467Z,16.40
2017-10-11T23:37:00.882Z,16.50
2017-10-11T23:39:28.491Z,16.40
2017-10-11T23:41:56.346Z,16.40
2017-10-11T23:44:24.020Z,16.40
2017-10-11T23:46:51.653Z,16.40
2017-10-11T23:49:20.153Z,16.40
2017-10-11T23:51:47.798Z,16.40
2017-10-11T23:54:16.276Z,16.40
2017-10-11T23:56:44.685Z,16.40
2017-10-11T23:59:12.343Z,16.40
